Time;durP1;ratioP1;P1;durP2;ratioP2;P2;SDS_P1;SDS_P2;PMS_P1;PMS_P2;Temp;Humidity;BMP_temperature;BMP_pressure;BME280_temperature;BME280_humidity;BME280_pressure;Samples;Min_cycle;Max_cycle;Signal;HPM_P1;HPM_P2
2021/01/23 05:21:10;;;;;;;72.38;66.90;;;1.90;99.90;;;;;;6064100;23;20463;-83
2021/01/23 05:27:07;;;;;;;72.80;68.63;;;1.80;99.90;;;;;;6051723;23;20525;-78
2021/01/23 05:33:21;;;;;;;;;;;;;;;;;;;;;
2021/01/23 05:46:13;;;;;;;76.95;72.10;;;1.50;99.90;;;;;;5922047;24;20485;-83
2021/01/23 06:53:51;;;;;;;59.00;55.28;;;2.20;99.90;;;;;;6036491;23;20418;-82
2021/01/23 06:56:27;;;;;;;;;;;;;;;;;;;;;
2021/01/23 06:58:57;;;;;;;68.73;64.50;;;2.30;99.90;;;;;;6207689;23;20402;-82
2021/01/23 07:01:24;;;;;;;63.30;59.23;;;2.20;99.90;;;;;;6246045;23;20450;-77
2021/01/23 07:04:25;;;;;;;62.57;58.43;;;2.30;99.90;;;;;;6244514;23;20438;-84
2021/01/23 07:06:56;;;;;;;67.60;64.00;;;2.30;99.90;;;;;;6104070;23;20499;-82
2021/01/23 07:10:20;;;;;;;61.67;57.73;;;2.30;99.90;;;;;;6234577;23;20462;-81
2021/01/23 07:13:59;;;;;;;;;;;;;;;;;;;;;
2021/01/23 07:16:47;;;;;;;53.95;50.25;;;2.30;99.90;;;;;;5992560;23;20494;-81
2021/01/23 07:19:26;;;;;;;51.37;47.90;;;2.40;99.90;;;;;;6230422;23;20165;-81
2021/01/23 07:22:41;;;;;;;;;;;;;;;;;;;;;
2021/01/23 07:25:13;;;;;;;56.27;52.17;;;2.30;99.90;;;;;;6169704;23;20792;-79
2021/01/23 07:27:40;;;;;;;55.92;52.08;;;2.20;99.90;;;;;;6245550;23;20435;-80
2021/01/23 07:30:10;;;;;;;56.80;53.20;;;2.20;99.90;;;;;;6245497;23;20160;-80
2021/01/23 07:32:40;;;;;;;58.57;54.87;;;2.20;99.90;;;;;;6245778;23;20431;-81
2021/01/23 07:35:08;;;;;;;61.27;57.17;;;2.30;99.90;;;;;;6254508;23;20506;-79
2021/01/23 07:37:43;;;;;;;57.05;53.30;;;2.30;99.90;;;;;;6245875;23;20397;-79
2021/01/23 07:40:13;;;;;;;55.80;52.07;;;2.20;99.90;;;;;;6245590;23;20623;-81
2021/01/23 07:42:41;;;;;;;55.83;52.28;;;2.20;99.90;;;;;;6245633;23;20720;-80
2021/01/23 07:45:25;;;;;;;59.80;56.00;;;2.20;99.90;;;;;;6245392;23;20600;-81
2021/01/23 07:47:55;;;;;;;62.03;58.07;;;2.20;99.90;;;;;;6255830;23;20419;-80
2021/01/23 07:50:24;;;;;;;62.37;58.53;;;2.20;99.90;;;;;;6243828;23;20527;-80
2021/01/23 07:52:50;;;;;;;59.95;56.08;;;2.20;99.90;;;;;;6245540;23;20409;-80
2021/01/23 07:55:18;;;;;;;61.53;57.33;;;2.20;99.90;;;;;;6245791;23;20153;-80
2021/01/23 07:58:05;;;;;;;64.15;58.95;;;2.20;99.90;;;;;;6245137;23;20403;-80
2021/01/23 08:00:31;;;;;;;58.87;55.13;;;2.20;99.90;;;;;;6245732;23;20156;-79
2021/01/23 08:02:58;;;;;;;61.67;57.50;;;2.30;99.90;;;;;;6245482;23;20434;-79
2021/01/23 08:05:46;;;;;;;61.17;56.90;;;2.20;99.90;;;;;;6244220;23;20392;-80
2021/01/23 08:08:32;;;;;;;62.73;58.73;;;2.20;99.90;;;;;;6245446;23;20776;-80
2021/01/23 08:11:08;;;;;;;64.00;59.80;;;2.30;99.90;;;;;;6255960;23;20474;-82
2021/01/23 08:13:35;;;;;;;63.50;59.23;;;2.30;99.90;;;;;;6255282;23;20414;-81
2021/01/23 08:16:11;;;;;;;63.37;59.20;;;2.30;99.90;;;;;;6255686;23;20743;-81
2021/01/23 08:18:45;;;;;;;66.47;61.83;;;2.30;99.90;;;;;;6245564;23;20392;-81
2021/01/23 08:21:18;;;;;;;64.97;60.27;;;2.30;99.90;;;;;;6244635;23;20887;-81
2021/01/23 08:23:44;;;;;;;68.03;63.43;;;2.30;99.90;;;;;;6245617;23;20455;-81
2021/01/23 08:26:11;;;;;;;69.13;64.57;;;2.40;99.90;;;;;;6245629;23;20403;-81
2021/01/23 08:28:49;;;;;;;72.90;68.43;;;2.40;99.90;;;;;;6245418;23;20435;-86
2021/01/23 08:31:17;;;;;;;63.90;59.53;;;2.50;99.90;;;;;;6253293;23;21265;-81
2021/01/23 08:33:52;;;;;;;64.90;61.00;;;2.50;99.90;;;;;;6253651;23;20157;-82
2021/01/23 08:36:23;;;;;;;63.73;59.73;;;2.50;99.90;;;;;;6255404;23;20157;-80
2021/01/23 08:39:00;;;;;;;67.83;63.40;;;2.50;99.90;;;;;;6245877;23;20400;-80
2021/01/23 08:41:29;;;;;;;64.37;60.50;;;2.60;99.90;;;;;;6255628;23;20450;-82
2021/01/23 08:43:56;;;;;;;67.60;63.37;;;2.60;99.90;;;;;;6255755;23;20443;-81
2021/01/23 08:46:25;;;;;;;66.72;62.63;;;2.60;99.90;;;;;;6245643;23;20399;-81
2021/01/23 08:48:56;;;;;;;68.57;63.87;;;2.60;99.90;;;;;;6254769;23;20188;-81
2021/01/23 08:51:24;;;;;;;74.70;70.37;;;2.70;99.90;;;;;;6245621;23;20922;-82
2021/01/23 08:53:54;;;;;;;76.87;71.97;;;2.90;99.90;;;;;;6247438;23;20403;-81
2021/01/23 08:56:23;;;;;;;81.17;76.47;;;3.10;99.90;;;;;;6257529;23;20400;-81
2021/01/23 08:58:52;;;;;;;75.87;71.57;;;3.20;99.90;;;;;;6257082;23;20461;-81
2021/01/23 09:01:20;;;;;;;70.70;66.00;;;3.40;99.90;;;;;;6246101;23;20880;-82
2021/01/23 09:03:46;;;;;;;48.60;44.90;;;3.50;99.90;;;;;;6246099;23;20189;-80
2021/01/23 09:06:22;;;;;;;36.08;32.83;;;3.80;99.90;;;;;;6257055;23;20275;-81
2021/01/23 09:08:50;;;;;;;27.33;24.70;;;3.90;99.90;;;;;;6257318;23;20159;-82
2021/01/23 09:11:22;;;;;;;23.70;21.10;;;4.30;99.90;;;;;;6257403;23;20406;-80
2021/01/23 09:13:48;;;;;;;21.15;16.25;;;4.50;99.90;;;;;;6247277;23;20724;-83
2021/01/23 09:16:16;;;;;;;18.87;11.57;;;4.70;99.90;;;;;;6257451;23;20165;-83
2021/01/23 09:19:02;;;;;;;;;;;;;;;;;;;;;
2021/01/23 09:21:35;;;;;;;21.00;11.23;;;5.20;99.90;;;;;;6256996;23;20398;-83
2021/01/23 09:24:01;;;;;;;14.70;10.70;;;5.30;99.90;;;;;;6256893;23;20438;-82
2021/01/23 09:26:30;;;;;;;16.17;11.07;;;5.70;99.90;;;;;;6257342;23;20407;-83
2021/01/23 09:29:05;;;;;;;23.87;10.63;;;5.90;99.90;;;;;;6216671;23;20868;-82
2021/01/23 09:31:35;;;;;;;16.40;10.73;;;6.20;99.90;;;;;;6226688;23;20465;-83
2021/01/23 09:34:02;;;;;;;17.17;11.00;;;6.10;99.90;;;;;;6215026;23;20431;-82
2021/01/23 09:36:40;;;;;;;18.70;9.83;;;6.00;99.90;;;;;;6226461;23;20431;-85
2021/01/23 09:39:30;;;;;;;;;;;;;;;;;;;;;
2021/01/23 09:42:30;;;;;;;15.33;9.57;;;6.20;99.90;;;;;;6226181;23;20403;-86
2021/01/23 09:48:06;;;;;;;;;;;;;;;;;;;;;
2021/01/23 09:51:09;;;;;;;15.63;9.70;;;6.70;99.90;;;;;;6214300;23;20172;-86
2021/01/23 09:53:40;;;;;;;13.90;9.20;;;6.80;99.90;;;;;;6226758;23;20435;-84
2021/01/23 09:59:20;;;;;;;16.63;9.53;;;6.90;99.90;;;;;;6064773;23;20716;-84
2021/01/23 10:01:55;;;;;;;14.33;7.37;;;6.90;99.90;;;;;;6187398;23;20954;-84
2021/01/23 10:04:48;;;;;;;15.60;7.27;;;6.80;99.90;;;;;;6224961;23;20435;-84
2021/01/23 10:07:58;;;;;;;10.90;6.30;;;6.60;99.90;;;;;;6123432;23;20930;-84
2021/01/23 10:10:40;;;;;;;15.60;7.07;;;6.40;99.90;;;;;;6160766;23;20423;-84
2021/01/23 10:13:46;;;;;;;10.87;5.77;;;6.50;99.70;;;;;;6226740;23;20767;-86
2021/01/23 10:17:29;;;;;;;10.55;6.75;;;6.50;99.90;;;;;;6167410;23;20495;-84
2021/01/23 10:21:00;;;;;;;;;;;;;;;;;;;;;
2021/01/23 10:26:55;;;;;;;7.90;5.30;;;7.40;93.00;;;;;;5980226;23;20443;-83
2021/01/23 10:29:24;;;;;;;11.23;5.83;;;7.80;83.80;;;;;;6061891;23;20167;-83
2021/01/23 10:31:50;;;;;;;11.70;6.57;;;8.00;76.20;;;;;;6147814;23;20413;-78
2021/01/23 10:34:18;;;;;;;8.67;4.60;;;8.10;70.30;;;;;;6224643;23;20495;-82
2021/01/23 10:36:45;;;;;;;13.90;5.60;;;8.10;60.30;;;;;;6214762;23;20431;-82
2021/01/23 10:39:14;;;;;;;11.80;5.13;;;8.00;67.20;;;;;;6222989;23;20165;-83
2021/01/23 10:42:30;;;;;;;8.40;4.90;;;8.00;70.00;;;;;;6223992;23;20823;-82
2021/01/23 10:45:17;;;;;;;8.53;4.63;;;8.00;66.50;;;;;;6199427;23;20436;-83
2021/01/23 10:47:45;;;;;;;10.73;5.37;;;7.90;60.20;;;;;;6213745;23;20492;-84
2021/01/23 10:50:18;;;;;;;12.83;5.50;;;8.20;60.40;;;;;;6222976;23;20461;-83
2021/01/23 10:52:44;;;;;;;7.70;4.50;;;8.20;62.50;;;;;;6196155;23;20413;-83
2021/01/23 10:55:16;;;;;;;10.07;5.43;;;8.30;60.50;;;;;;6214606;23;20446;-82
2021/01/23 10:57:47;;;;;;;8.10;4.30;;;8.30;57.80;;;;;;6223951;23;20405;-86
2021/01/23 11:00:34;;;;;;;8.80;4.40;;;8.20;60.40;;;;;;6213823;23;20443;-84
2021/01/23 11:03:27;;;;;;;7.93;4.70;;;8.00;53.70;;;;;;6200890;23;20482;-83
2021/01/23 11:06:02;;;;;;;9.20;5.40;;;7.90;47.90;;;;;;6210453;23;20432;-83
2021/01/23 11:08:29;;;;;;;14.50;4.87;;;7.80;50.40;;;;;;6214092;23;20399;-82
2021/01/23 11:10:58;;;;;;;12.00;4.20;;;7.90;47.80;;;;;;6223839;23;20416;-83
2021/01/23 11:13:36;;;;;;;9.33;4.17;;;7.80;43.10;;;;;;6213600;23;20409;-83
2021/01/23 11:16:08;;;;;;;9.33;4.60;;;8.00;45.40;;;;;;6213591;23;20439;-83
2021/01/23 11:18:34;;;;;;;9.77;4.63;;;8.00;45.20;;;;;;6224189;23;20415;-83
2021/01/23 11:21:03;;;;;;;9.47;4.53;;;8.40;45.30;;;;;;6212995;23;20291;-83
2021/01/23 11:23:35;;;;;;;9.85;4.68;;;8.50;43.60;;;;;;6224076;23;20439;-83
2021/01/23 11:26:26;;;;;;;8.90;4.90;;;8.80;43.80;;;;;;6213641;23;20165;-84
2021/01/23 11:29:07;;;;;;;9.33;4.30;;;8.60;40.10;;;;;;6253393;23;20528;-83
2021/01/23 11:31:39;;;;;;;9.90;4.50;;;8.90;39.80;;;;;;6254229;23;20410;-83
2021/01/23 11:34:15;;;;;;;8.97;4.10;;;8.90;40.20;;;;;;6242412;23;21307;-83
2021/01/23 11:36:42;;;;;;;6.00;3.30;;;8.80;29.40;;;;;;6254597;23;20921;-82
2021/01/23 11:39:09;;;;;;;8.60;4.37;;;8.50;31.40;;;;;;6254078;23;20415;-83
2021/01/23 11:41:41;;;;;;;8.70;4.47;;;8.40;37.90;;;;;;6245704;23;20395;-83
2021/01/23 11:44:16;;;;;;;6.97;4.20;;;8.20;39.00;;;;;;6245938;23;20442;-83
2021/01/23 11:47:01;;;;;;;;;;;;;;;;;;;;;
2021/01/23 11:50:06;;;;;;;7.80;4.10;;;8.40;38.70;;;;;;6243702;23;20403;-84
2021/01/23 11:52:40;;;;;;;7.73;3.47;;;8.40;34.60;;;;;;6132781;23;20419;-83
2021/01/23 11:55:16;;;;;;;7.20;4.30;;;8.50;33.40;;;;;;6132758;23;20418;-82
2021/01/23 11:57:53;;;;;;;7.83;3.63;;;8.60;29.90;;;;;;6133026;23;20890;-84
2021/01/23 12:00:37;;;;;;;8.30;4.30;;;8.90;30.90;;;;;;6123261;23;20403;-83
2021/01/23 12:03:17;;;;;;;8.10;4.00;;;9.10;28.10;;;;;;6233920;23;20734;-84
2021/01/23 12:05:56;;;;;;;6.53;3.70;;;8.90;27.00;;;;;;6176310;23;20510;-84
2021/01/23 12:08:30;;;;;;;9.50;4.80;;;8.60;30.50;;;;;;6256614;23;20414;-84
2021/01/23 12:11:02;;;;;;;7.93;4.43;;;8.60;30.10;;;;;;6257367;23;20437;-83
2021/01/23 12:13:34;;;;;;;7.73;4.30;;;8.70;34.90;;;;;;6257751;23;20418;-83
2021/01/23 12:16:05;;;;;;;9.43;3.93;;;8.60;34.80;;;;;;6247766;23;20424;-83
2021/01/23 12:18:40;;;;;;;12.73;4.70;;;8.50;30.30;;;;;;6257805;23;20886;-84
2021/01/23 12:21:20;;;;;;;6.23;3.50;;;8.50;37.30;;;;;;6246176;23;20453;-84
2021/01/23 12:23:53;;;;;;;8.63;3.90;;;8.40;29.90;;;;;;6257980;23;20454;-78
2021/01/23 12:26:34;;;;;;;10.67;4.03;;;8.40;34.60;;;;;;6248296;23;20163;-84
2021/01/23 12:29:11;;;;;;;;;;;;;;;;;;;;;
2021/01/23 12:32:08;;;;;;;7.70;3.53;;;8.30;34.50;;;;;;6257973;23;20395;-84
2021/01/23 12:34:39;;;;;;;9.25;3.47;;;8.30;35.10;;;;;;6256290;23;20525;-84
2021/01/23 12:37:12;;;;;;;8.57;3.10;;;8.30;30.70;;;;;;6257838;23;20164;-84
2021/01/23 12:39:50;;;;;;;8.33;4.00;;;8.40;31.30;;;;;;6257210;23;20477;-84
2021/01/23 12:42:32;;;;;;;8.55;4.20;;;8.20;32.30;;;;;;6247491;23;20399;-83
2021/01/23 12:51:43;;;;;;;6.40;3.70;;;8.30;32.00;;;;;;6256391;23;20412;-84
2021/01/23 12:54:52;;;;;;;;;;;;;;;;;;;;;
2021/01/23 12:57:37;;;;;;;5.90;2.90;;;10.20;23.30;;;;;;6257489;23;20418;-84
2021/01/23 13:19:54;;;;;;;;;;;;;;;;;;;;;
2021/01/23 13:22:36;;;;;;;7.37;2.03;;;11.70;3.40;;;;;;6257293;23;20159;-87
2021/01/23 13:25:23;;;;;;;;;;;;;;;;;;;;;
2021/01/23 13:28:13;;;;;;;7.10;2.80;;;11.10;2.50;;;;;;6252417;22;20516;-86
2021/01/23 13:31:08;;;;;;;6.77;2.77;;;10.20;5.90;;;;;;6236139;23;20422;-87
2021/01/23 13:33:44;;;;;;;6.23;2.13;;;9.60;10.50;;;;;;6218693;23;20780;-86
2021/01/23 13:39:46;;;;;;;9.20;2.83;;;9.40;11.80;;;;;;6239052;23;20406;-85
2021/01/23 13:42:26;;;;;;;6.63;2.57;;;9.60;13.00;;;;;;6243268;23;20905;-86
2021/01/23 13:45:09;;;;;;;7.60;2.60;;;9.40;10.70;;;;;;6252758;23;20443;-86
2021/01/23 13:47:45;;;;;;;10.23;2.20;;;9.20;12.80;;;;;;6255772;23;20411;-85
2021/01/23 13:50:18;;;;;;;5.17;2.20;;;8.80;15.40;;;;;;6243327;23;20468;-85
2021/01/23 13:52:45;;;;;;;10.80;2.93;;;8.70;16.50;;;;;;6255575;23;20808;-85
2021/01/23 13:55:15;;;;;;;7.73;2.77;;;8.60;19.60;;;;;;6254657;23;20791;-86
2021/01/23 13:57:42;;;;;;;4.20;1.10;;;8.50;21.30;;;;;;6255407;23;20512;-85
2021/01/23 14:00:25;;;;;;;5.35;1.60;;;8.20;22.30;;;;;;6255210;23;20457;-85
2021/01/23 14:02:54;;;;;;;7.07;2.22;;;8.00;20.20;;;;;;6255614;23;20231;-86
2021/01/23 14:05:36;;;;;;;5.87;2.00;;;8.00;22.90;;;;;;6253613;23;20212;-86
2021/01/23 14:08:25;;;;;;;6.53;1.93;;;8.00;26.40;;;;;;6244987;23;20876;-85
2021/01/23 14:11:15;;;;;;;6.77;2.63;;;8.00;25.50;;;;;;6183702;23;20410;-86
2021/01/23 14:14:14;;;;;;;4.97;2.03;;;8.00;26.20;;;;;;6131714;23;20411;-84
2021/01/23 14:17:22;;;;;;;;;;;;;;;;;;;;;
2021/01/23 14:20:09;;;;;;;8.00;2.40;;;7.90;25.00;;;;;;6244008;23;20406;-84
2021/01/23 14:22:39;;;;;;;7.03;2.27;;;7.80;26.30;;;;;;6256643;23;20410;-85
2021/01/23 14:25:43;;;;;;;7.30;2.30;;;7.70;26.20;;;;;;6246062;23;20466;-84
2021/01/23 14:28:27;;;;;;;6.70;1.73;;;7.70;27.40;;;;;;6255563;22;20438;-84
2021/01/23 14:31:00;;;;;;;5.47;2.03;;;7.60;26.10;;;;;;6246320;23;20403;-86
2021/01/23 14:33:31;;;;;;;5.07;2.00;;;7.60;26.10;;;;;;6256870;23;20427;-85
2021/01/23 14:36:12;;;;;;;4.10;1.63;;;7.50;29.80;;;;;;6254900;23;20457;-80
2021/01/23 14:38:44;;;;;;;4.73;2.13;;;7.30;28.90;;;;;;6246234;23;20396;-84
2021/01/23 14:41:17;;;;;;;11.23;2.20;;;7.10;33.60;;;;;;6256334;23;20412;-85
2021/01/23 14:44:23;;;;;;;5.30;1.93;;;7.00;32.20;;;;;;6256095;23;20427;-86
2021/01/23 14:47:06;;;;;;;6.97;2.00;;;7.00;34.30;;;;;;6242371;23;20418;-86
2021/01/23 14:49:40;;;;;;;5.60;2.50;;;6.90;34.70;;;;;;6244975;23;20890;-86
2021/01/23 14:55:09;;;;;;;4.77;1.90;;;6.60;41.90;;;;;;6243152;23;20489;-85
2021/01/23 14:57:43;;;;;;;7.67;2.10;;;6.50;45.10;;;;;;6246382;23;20414;-85
2021/01/23 15:00:45;;;;;;;5.43;2.07;;;6.50;45.60;;;;;;6246229;23;20403;-85
2021/01/23 15:03:35;;;;;;;6.45;2.28;;;6.50;46.90;;;;;;6239026;23;20456;-86
2021/01/23 15:06:05;;;;;;;8.50;2.40;;;6.50;45.90;;;;;;6255092;23;20454;-85
2021/01/23 15:08:49;;;;;;;8.90;2.10;;;6.60;51.10;;;;;;6255581;23;20782;-86
2021/01/23 15:16:57;;;;;;;6.53;2.57;;;6.50;61.20;;;;;;6219754;23;20460;-85
2021/01/23 15:19:40;;;;;;;7.43;2.83;;;6.50;67.80;;;;;;6250792;23;20418;-85
2021/01/23 15:22:17;;;;;;;5.60;3.10;;;6.40;72.40;;;;;;6254826;23;20410;-84
2021/01/23 15:25:12;;;;;;;6.78;2.35;;;6.40;76.00;;;;;;6253665;23;20449;-85
2021/01/23 15:27:47;;;;;;;8.73;2.37;;;6.40;78.10;;;;;;6236404;23;20196;-86
2021/01/23 15:41:33;;;;;;;;;;;;;;;;;;;;;
2021/01/23 15:44:39;;;;;;;;;;;;;;;;;;;;;
2021/01/23 15:47:49;;;;;;;5.07;2.20;;;6.10;83.30;;;;;;6131446;23;20516;-85
2021/01/23 15:50:58;;;;;;;5.23;2.50;;;6.00;84.00;;;;;;6130234;23;20412;-85
2021/01/23 15:53:47;;;;;;;6.30;2.50;;;5.80;91.10;;;;;;6072849;23;20417;-86
2021/01/23 15:56:24;;;;;;;6.17;2.80;;;5.60;97.40;;;;;;6116864;23;20731;-84
2021/01/23 15:59:21;;;;;;;6.68;4.05;;;5.40;99.90;;;;;;6131548;23;20461;-85
2021/01/23 16:01:52;;;;;;;5.60;2.70;;;5.30;99.90;;;;;;6197550;23;20180;-85
2021/01/23 16:04:29;;;;;;;6.50;2.77;;;5.20;99.90;;;;;;6198971;23;20969;-85
2021/01/23 16:06:56;;;;;;;12.17;3.77;;;5.10;99.90;;;;;;6255873;23;21013;-85
2021/01/23 16:12:49;;;;;;;6.37;2.47;;;4.80;99.90;;;;;;6245161;23;20407;-83
2021/01/23 16:15:18;;;;;;;6.38;3.10;;;4.70;99.90;;;;;;6239477;23;20407;-84
2021/01/23 16:18:25;;;;;;;15.45;8.93;;;4.60;99.90;;;;;;6255421;23;20929;-85
2021/01/23 16:21:14;;;;;;;15.43;11.13;;;4.60;99.90;;;;;;6232283;23;20171;-85
2021/01/23 16:24:09;;;;;;;44.47;30.33;;;4.70;99.90;;;;;;6245638;23;20442;-85
2021/01/23 16:26:50;;;;;;;;;;;;;;;;;;;;;
2021/01/23 16:29:41;;;;;;;32.00;24.33;;;4.60;99.90;;;;;;6255542;23;20435;-86
2021/01/23 16:32:21;;;;;;;14.65;11.45;;;4.70;99.90;;;;;;6256247;23;20805;-86
2021/01/23 16:35:46;;;;;;;;;;;;;;;;;;;;;
2021/01/23 16:38:58;;;;;;;8.60;4.53;;;4.50;99.90;;;;;;6255799;23;20484;-85
2021/01/23 16:42:03;;;;;;;8.80;4.85;;;4.50;99.90;;;;;;6233139;23;20169;-86
2021/01/23 16:47:34;;;;;;;8.53;3.87;;;4.40;99.90;;;;;;6196619;23;20470;-85
2021/01/23 16:53:44;;;;;;;6.53;5.25;;;4.20;99.90;;;;;;6243661;23;20419;-86
2021/01/23 16:56:33;;;;;;;10.70;4.17;;;4.20;99.90;;;;;;6190385;23;20165;-85
2021/01/23 16:59:10;;;;;;;7.23;4.10;;;4.10;99.90;;;;;;6246977;23;20486;-84
2021/01/23 17:01:36;;;;;;;5.77;3.70;;;4.00;99.90;;;;;;6257822;23;20734;-85
2021/01/23 17:04:45;;;;;;;;;;;;;;;;;;;;;
2021/01/23 17:07:12;;;;;;;7.00;4.13;;;3.70;99.90;;;;;;6244450;23;20168;-88
2021/01/23 17:09:44;;;;;;;9.43;6.50;;;3.70;99.90;;;;;;6258704;23;20450;-85
2021/01/23 17:12:10;;;;;;;10.47;4.50;;;3.70;99.90;;;;;;6259050;23;20403;-86
2021/01/23 17:35:06;;;;;;;;;;;;;;;;;;;;;
2021/01/23 17:43:51;;;;;;;10.40;5.67;;;3.80;99.90;;;;;;6046770;23;20416;-84
2021/01/23 17:50:03;;;;;;;21.47;5.80;;;3.80;99.90;;;;;;6060631;23;20179;-83
2021/01/23 17:53:14;;;;;;;8.10;5.10;;;3.80;99.90;;;;;;6131835;23;20418;-85
2021/01/23 18:03:01;;;;;;;12.88;5.97;;;3.80;99.90;;;;;;5994026;23;20193;-85
2021/01/23 18:26:47;;;;;;;10.43;6.30;;;4.00;99.90;;;;;;5904573;24;20477;-83
2021/01/23 18:29:34;;;;;;;12.47;5.87;;;4.00;99.90;;;;;;6018138;23;20237;-83
2021/01/23 19:39:21;;;;;;;10.73;6.17;;;4.70;99.90;;;;;;6244085;23;20443;-85
2021/01/23 19:42:40;;;;;;;;;;;;;;;;;;;;;
2021/01/23 20:20:54;;;;;;;;;;;;;;;;;;;;;
2021/01/23 20:26:54;;;;;;;10.50;7.60;;;4.60;99.90;;;;;;6063970;23;20448;-85
2021/01/23 20:29:32;;;;;;;13.13;9.90;;;4.50;99.90;;;;;;6075420;23;20499;-85
2021/01/23 20:32:07;;;;;;;14.53;9.63;;;4.50;99.90;;;;;;6077004;23;20409;-85
2021/01/23 20:35:09;;;;;;;16.07;11.43;;;4.40;99.90;;;;;;6139289;23;20408;-85
2021/01/23 20:37:39;;;;;;;15.30;11.63;;;4.40;99.90;;;;;;6087388;23;20428;-85
2021/01/23 20:40:12;;;;;;;16.00;11.47;;;4.40;99.90;;;;;;6205744;22;20411;-84
2021/01/23 20:42:45;;;;;;;13.93;11.60;;;4.40;99.90;;;;;;6278087;22;20460;-84
2021/01/23 20:45:20;;;;;;;15.80;12.80;;;4.40;99.90;;;;;;6277669;22;20469;-86
2021/01/23 20:47:58;;;;;;;15.50;13.93;;;4.30;99.90;;;;;;6288275;22;20406;-85
2021/01/23 20:50:51;;;;;;;;;;;;;;;;;;;;;
2021/01/23 20:56:49;;;;;;;18.88;16.30;;;4.30;99.90;;;;;;6275932;22;20410;-86
2021/01/23 20:59:16;;;;;;;16.67;15.07;;;4.20;99.90;;;;;;6289857;22;20160;-86
2021/01/23 21:05:42;;;;;;;17.97;16.10;;;4.30;99.90;;;;;;6171410;22;20441;-87
2021/01/23 21:08:46;;;;;;;21.87;15.30;;;4.30;99.90;;;;;;6288091;22;20893;-88
2021/01/23 21:11:41;;;;;;;;;;;;;;;;;;;;;
2021/01/23 21:14:27;;;;;;;28.37;26.07;;;4.20;99.90;;;;;;6288689;22;20464;-87
2021/01/23 21:27:40;;;;;;;;;;;;;;;;;;;;;
2021/01/23 21:30:50;;;;;;;19.57;18.23;;;3.70;99.90;;;;;;6046628;23;20472;-84
2021/01/23 21:33:22;;;;;;;28.13;26.23;;;3.60;99.90;;;;;;6039340;23;20759;-85
2021/01/23 21:52:12;;;;;;;;;;;;;;;;;;;;;
2021/01/23 21:58:40;;;;;;;;;;;;;;;;;;;;;
2021/01/23 22:01:30;;;;;;;120.13;115.07;;;3.10;99.90;;;;;;6066408;23;20480;-88
2021/01/23 22:04:22;;;;;;;;;;;;;;;;;;;;;
2021/01/23 22:10:50;;;;;;;;;;;;;;;;;;;;;
2021/01/23 22:14:10;;;;;;;;;;;;;;;;;;;;;
2021/01/23 22:23:35;;;;;;;141.93;135.00;;;3.10;99.90;;;;;;6063097;23;20792;-88
2021/01/23 22:26:43;;;;;;;;;;;;;;;;;;;;;
2021/01/23 22:29:42;;;;;;;158.17;150.90;;;3.20;99.90;;;;;;6271390;22;20438;-89
2021/01/23 22:33:06;;;;;;;;;;;;;;;;;;;;;
2021/01/23 22:39:26;;;;;;;153.27;145.63;;;3.20;99.90;;;;;;6184818;22;20421;-87
2021/01/23 22:42:20;;;;;;;166.97;159.87;;;3.20;99.90;;;;;;6288137;22;20231;-89
2021/01/23 22:54:34;;;;;;;;;;;;;;;;;;;;;
2021/01/23 23:00:53;;;;;;;152.77;145.90;;;3.10;99.90;;;;;;6273631;22;20422;-87
2021/01/23 23:17:39;;;;;;;138.32;131.93;;;2.90;99.90;;;;;;6120080;23;20450;-87
2021/01/23 23:33:45;;;;;;;;;;;;;;;;;;;;;
2021/01/23 23:59:55;;;;;;;;;;;;;;;;;;;;;
